Flight Track Log - Related Links

Times and Time Zones

All times are in EST time to prevent confusion due to time zone crossing. See the JBU56 flight status page for this flight to view local times or setup timezone preferences in your user account.

Time Position Orientation Groundspeed Altitude Reporting Facility
EST Latitude Longitude Course Direction KTS MPH feet Rate Location/Type
Fri 09:56:15 AM 38.9500 -77.5000 41° Northeast 147 169 1,700  Level Potomac TRACON
Fri 09:57:09 AM 38.9833 -77.5167 339° North 170 196 3,100 2,158 Climbing Potomac TRACON
Fri 09:58:09 AM 39.0500 -77.5333 349° North 232 267 5,800 2,950 Climbing Potomac TRACON
Fri 09:59:00 AM 39.5447 -76.4232 52° Northeast  Level Estimated
Fri 09:59:09 AM 39.1167 -77.5000 21° North 273 314 9,000  Level Potomac TRACON
Fri 10:00:00 AM 39.5112 -76.3413 118° Southeast  Level FlightAware Approximate
Fri 10:00:09 AM 39.1500 -77.4000 67° East 327 376 10,000  Level Potomac TRACON
Fri 10:01:00 AM 39.5542 -76.2673 41° Northeast  Level Estimated
Fri 10:01:09 AM 39.1667 -77.2667 81° East 373 429 10,000  Level Potomac TRACON
Fri 10:02:43 AM 39.1292 -77.0847 105° East 395 455 10,000 818 Level Washington Center
Fri 10:03:43 AM 39.1122 -76.9478 99° East 389 448 12,100 2,331 Climbing Washington Center
Fri 10:04:44 AM 39.1053 -76.8114 94° East 389 448 14,700 2,420 Climbing Washington Center
Fri 10:05:42 AM 39.1169 -76.6617 84° East 394 453 16,900 1,950 Climbing Washington Center
Fri 10:06:44 AM 39.1286 -76.5094 84° East 412 474 18,600 1,869 Climbing Washington Center
Fri 10:07:44 AM 39.1403 -76.3517 85° East 426 490 20,700 2,017 Climbing Washington Center
Fri 10:08:43 AM 39.1558 -76.1883 83° East 438 504 22,600 1,800 Climbing Washington Center
Fri 10:09:44 AM 39.1772 -76.0039 81° East 459 528 24,300 1,613 Climbing Washington Center
Fri 10:10:42 AM 39.2214 -75.8461 70° East 468 539 25,800 1,462 Climbing Washington Center
Fri 10:11:43 AM 39.3092 -75.7311 45° Northeast 440 506 27,200 1,279 Climbing Washington Center
Fri 10:12:44 AM 39.4031 -75.6131 44° Northeast 445 512 28,400 1,412 Climbing Washington Center
Fri 10:13:42 AM 39.4928 -75.4947 45° Northeast 456 525 30,000 1,311 Climbing Washington Center
Fri 10:14:43 AM 39.5864 -75.3708 46° Northeast 461 531 31,000 496 Climbing Washington Center
Fri 10:15:43 AM 39.6817 -75.2436 46° Northeast 469 540 31,000  Level Washington Center
Fri 10:16:16 AM 39.7378 -75.1658 47° Northeast 480 552 31,000  Level New York Center
Fri 10:17:16 AM 39.8303 -75.0311 48° Northeast 491 565 31,000  Level New York Center
Fri 10:18:16 AM 39.9247 -74.8961 48° Northeast 502 578 31,000  Level New York Center
Fri 10:19:16 AM 40.0083 -74.7708 49° Northeast 502 578 31,000  Level New York Center
Fri 10:20:17 AM 40.1044 -74.6381 47° Northeast 502 578 31,000  Level New York Center
Fri 10:21:16 AM 40.1961 -74.5044 48° Northeast 502 578 31,000  Level New York Center
Fri 10:22:16 AM 40.3042 -74.3881 39° Northeast 497 572 31,000 -650 Level New York Center
Fri 10:23:16 AM 40.4075 -74.2761 40° Northeast 491 565 29,700 -1,800 Descending New York Center
Fri 10:24:16 AM 40.5064 -74.1719 39° Northeast 471 542 27,400 -1,311 Descending New York Center
Fri 10:26:19 AM 40.7033 -73.9303 43° Northeast 466 536 25,700 -783 Descending Boston Center
Fri 10:27:20 AM 40.7664 -73.7981 58° Northeast 489 563 25,000 -347 Descending Boston Center
Fri 10:28:20 AM 40.8128 -73.6222 71° East 505 581 25,000 -99 Level Boston Center
Fri 10:29:21 AM 40.8772 -73.4203 67° East 501 577 24,800 -590 Descending Boston Center
Fri 10:30:22 AM 40.9553 -73.3028 49° Northeast 479 551 23,800 -871 Descending Boston Center
Fri 10:31:25 AM 41.0592 -73.2214 31° Northeast 431 496 23,000 -387 Descending Boston Center
Fri 10:32:26 AM 41.1561 -73.1244 37° Northeast 453 521 23,000  Level Boston Center
Fri 10:33:25 AM 41.2172 -72.9592 64° Northeast 495 570 23,000  Level Boston Center
Fri 10:34:25 AM 41.2836 -72.7644 66° East 502 578 23,000  Level Boston Center
Fri 10:35:26 AM 41.3417 -72.5928 66° East 505 581 23,000  Level Boston Center
Fri 10:36:28 AM 41.3983 -72.4219 66° East 503 579 23,000  Level Boston Center
Fri 10:37:30 AM 41.4569 -72.2514 65° Northeast 504 580 23,000  Level Boston Center
Fri 10:38:30 AM 41.5142 -72.0831 66° East 500 575 23,000 -900 Level Boston Center
Fri 10:39:30 AM 41.5661 -71.9122 68° East 500 575 21,200 -1,935 Descending Boston Center
Fri 10:40:34 AM 41.6239 -71.7386 66° East 483 556 19,000 -1,984 Descending Boston Center
Fri 10:41:34 AM 41.6817 -71.5694 65° Northeast 471 542 17,100 -2,033 Descending Boston Center
Fri 10:42:35 AM 41.7283 -71.4236 67° East 437 503 14,900 -1,983 Descending Boston Center
Fri 10:43:35 AM 41.7836 -71.2925 60° Northeast 409 471 13,100 -1,736 Descending Boston Center
Fri 10:44:36 AM 41.8389 -71.1642 60° Northeast 371 427 11,400 -1,086 Descending Boston Center
Fri 10:45:31 AM 41.8833 -71.0667 58° Northeast 299 344 11,000 -887 Descending KA90
Fri 10:46:31 AM 41.9167 -70.9667 66° East 299 344 9,700 -1,200 Descending KA90
Fri 10:47:31 AM 41.9667 -70.9000 45° Northeast 262 302 8,600 -1,400 Descending KA90
Fri 10:48:31 AM 42.0333 -70.8333 37° Northeast 262 302 6,900 -1,650 Descending KA90
Fri 10:49:31 AM 42.1000 -70.7833 29° Northeast 267 307 5,300 -1,000 Descending KA90
Fri 10:50:43 AM 42.1572 -70.7456 26° Northeast 249 287 4,700 -727 Descending Boston Center
Fri 10:51:43 AM 42.1953 -70.7756 330° Northwest 193 222 3,700 -843 Descending Boston Center
Fri 10:52:44 AM 42.2253 -70.8169 314° West 170 196 3,000 -387 Descending Boston Center
Fri 10:53:47 AM 42.2581 -70.8653 313° West 154 177 2,900 -444 Descending Boston Center
Fri 10:54:32 AM 42.2833 -70.9000 315° West 149 171 2,200 -800 Descending KA90
Fri 10:55:32 AM 42.3000 -70.9333 304° West 115 132 1,500 -700 Descending KA90
Fri 10:56:32 AM 42.3333 -70.9500 340° North 124 143 800 -700 Descending KA90

Login

Don't have an account? Register now (free) for customized features, flight alerts, and more!